sensor_id;sensor_type;location;lat;lon;timestamp;pressure;altitude;pressure_sealevel;temperature;humidity
16431;BME280;8325;49.284;7.238;2023-06-22T00:00:55;98770.59;;;21.01;100.00
16431;BME280;8325;49.284;7.238;2023-06-22T00:05:07;98797.00;;;21.07;100.00
16431;BME280;8325;49.284;7.238;2023-06-22T00:09:19;98805.78;;;21.08;100.00
16431;BME280;8325;49.284;7.238;2023-06-22T00:13:31;98826.22;;;21.07;100.00
16431;BME280;8325;49.284;7.238;2023-06-22T00:17:42;98831.97;;;21.16;100.00
16431;BME280;8325;49.284;7.238;2023-06-22T00:21:54;98837.56;;;21.31;100.00
16431;BME280;8325;49.284;7.238;2023-06-22T00:26:05;98819.31;;;21.35;100.00
16431;BME280;8325;49.284;7.238;2023-06-22T00:30:18;98817.94;;;21.32;100.00
16431;BME280;8325;49.284;7.238;2023-06-22T00:34:30;98806.16;;;21.28;100.00
16431;BME280;8325;49.284;7.238;2023-06-22T00:38:43;98785.00;;;21.05;100.00
16431;BME280;8325;49.284;7.238;2023-06-22T00:42:55;98767.06;;;20.83;100.00
16431;BME280;8325;49.284;7.238;2023-06-22T00:47:11;98767.63;;;20.85;100.00
16431;BME280;8325;49.284;7.238;2023-06-22T00:51:24;98750.66;;;20.86;100.00
16431;BME280;8325;49.284;7.238;2023-06-22T00:55:43;98739.81;;;20.88;100.00
16431;BME280;8325;49.284;7.238;2023-06-22T00:59:56;98735.47;;;20.70;100.00
16431;BME280;8325;49.284;7.238;2023-06-22T01:04:08;98719.06;;;20.73;100.00
16431;BME280;8325;49.284;7.238;2023-06-22T01:08:31;98715.84;;;20.71;100.00
16431;BME280;8325;49.284;7.238;2023-06-22T01:12:50;98718.06;;;20.62;100.00
16431;BME280;8325;49.284;7.238;2023-06-22T01:17:05;98726.03;;;20.62;100.00
16431;BME280;8325;49.284;7.238;2023-06-22T01:21:19;98726.28;;;20.61;100.00
16431;BME280;8325;49.284;7.238;2023-06-22T01:29:55;98724.72;;;20.77;100.00
16431;BME280;8325;49.284;7.238;2023-06-22T01:34:12;98736.22;;;20.54;100.00
16431;BME280;8325;49.284;7.238;2023-06-22T01:38:26;98742.66;;;20.34;100.00
16431;BME280;8325;49.284;7.238;2023-06-22T01:42:38;98743.44;;;20.35;100.00
16431;BME280;8325;49.284;7.238;2023-06-22T01:46:52;98739.31;;;20.51;100.00
16431;BME280;8325;49.284;7.238;2023-06-22T01:51:05;98733.53;;;20.42;100.00
16431;BME280;8325;49.284;7.238;2023-06-22T01:55:16;98738.75;;;20.25;100.00
16431;BME280;8325;49.284;7.238;2023-06-22T01:59:53;98737.25;;;20.29;100.00
16431;BME280;8325;49.284;7.238;2023-06-22T02:04:21;98734.69;;;20.22;100.00
16431;BME280;8325;49.284;7.238;2023-06-22T02:08:41;98720.09;;;20.20;100.00
16431;BME280;8325;49.284;7.238;2023-06-22T02:12:57;98706.81;;;20.08;100.00
16431;BME280;8325;49.284;7.238;2023-06-22T02:17:10;98693.66;;;20.13;100.00
16431;BME280;8325;49.284;7.238;2023-06-22T02:21:24;98688.03;;;20.10;100.00
16431;BME280;8325;49.284;7.238;2023-06-22T02:25:35;98689.19;;;20.14;100.00
16431;BME280;8325;49.284;7.238;2023-06-22T02:29:47;98676.47;;;20.16;100.00
16431;BME280;8325;49.284;7.238;2023-06-22T02:33:59;98663.13;;;20.11;100.00
16431;BME280;8325;49.284;7.238;2023-06-22T02:38:11;98660.38;;;20.06;100.00
16431;BME280;8325;49.284;7.238;2023-06-22T02:42:22;98650.56;;;20.06;100.00
16431;BME280;8325;49.284;7.238;2023-06-22T02:46:35;98655.84;;;20.18;100.00
16431;BME280;8325;49.284;7.238;2023-06-22T02:50:47;98648.25;;;19.98;100.00
16431;BME280;8325;49.284;7.238;2023-06-22T02:54:59;98656.69;;;19.95;100.00
16431;BME280;8325;49.284;7.238;2023-06-22T02:59:11;98641.47;;;19.90;100.00
16431;BME280;8325;49.284;7.238;2023-06-22T03:03:23;98653.94;;;19.78;100.00
16431;BME280;8325;49.284;7.238;2023-06-22T03:07:37;98658.88;;;19.74;100.00
16431;BME280;8325;49.284;7.238;2023-06-22T03:11:49;98661.75;;;19.73;100.00
16431;BME280;8325;49.284;7.238;2023-06-22T03:16:01;98661.28;;;19.64;100.00
16431;BME280;8325;49.284;7.238;2023-06-22T03:20:13;98651.28;;;19.66;100.00
16431;BME280;8325;49.284;7.238;2023-06-22T03:24:25;98644.22;;;19.60;100.00
16431;BME280;8325;49.284;7.238;2023-06-22T03:28:38;98657.56;;;19.53;100.00
16431;BME280;8325;49.284;7.238;2023-06-22T03:32:52;98651.16;;;19.61;100.00
16431;BME280;8325;49.284;7.238;2023-06-22T03:37:04;98651.81;;;19.57;100.00
16431;BME280;8325;49.284;7.238;2023-06-22T03:41:15;98652.50;;;19.64;100.00
16431;BME280;8325;49.284;7.238;2023-06-22T03:45:28;98651.94;;;19.62;100.00
16431;BME280;8325;49.284;7.238;2023-06-22T03:49:39;98649.44;;;19.67;100.00
16431;BME280;8325;49.284;7.238;2023-06-22T03:53:51;98641.81;;;19.59;100.00
16431;BME280;8325;49.284;7.238;2023-06-22T03:58:03;98644.81;;;19.62;100.00
16431;BME280;8325;49.284;7.238;2023-06-22T04:02:17;98631.22;;;19.59;100.00
16431;BME280;8325;49.284;7.238;2023-06-22T04:06:28;98640.09;;;19.64;100.00
16431;BME280;8325;49.284;7.238;2023-06-22T04:10:40;98639.41;;;19.69;100.00
16431;BME280;8325;49.284;7.238;2023-06-22T04:14:52;98649.69;;;19.77;100.00
16431;BME280;8325;49.284;7.238;2023-06-22T04:19:04;98646.66;;;19.85;100.00
16431;BME280;8325;49.284;7.238;2023-06-22T04:23:15;98632.72;;;19.90;100.00
16431;BME280;8325;49.284;7.238;2023-06-22T04:27:27;98626.03;;;19.99;100.00
16431;BME280;8325;49.284;7.238;2023-06-22T04:31:39;98624.25;;;20.16;100.00
16431;BME280;8325;49.284;7.238;2023-06-22T04:35:50;98628.28;;;20.19;100.00
16431;BME280;8325;49.284;7.238;2023-06-22T04:40:02;98617.75;;;20.36;100.00
16431;BME280;8325;49.284;7.238;2023-06-22T04:44:18;98621.06;;;20.55;100.00
16431;BME280;8325;49.284;7.238;2023-06-22T04:48:36;98623.44;;;20.68;100.00
16431;BME280;8325;49.284;7.238;2023-06-22T04:52:48;98615.38;;;21.08;100.00
16431;BME280;8325;49.284;7.238;2023-06-22T04:57:04;98614.31;;;20.92;100.00
16431;BME280;8325;49.284;7.238;2023-06-22T05:01:16;98603.53;;;20.82;100.00
16431;BME280;8325;49.284;7.238;2023-06-22T05:05:29;98608.94;;;21.04;100.00
16431;BME280;8325;49.284;7.238;2023-06-22T05:09:43;98608.63;;;21.18;100.00
16431;BME280;8325;49.284;7.238;2023-06-22T05:13:55;98605.53;;;21.76;100.00
16431;BME280;8325;49.284;7.238;2023-06-22T05:18:13;98600.78;;;23.26;97.84
16431;BME280;8325;49.284;7.238;2023-06-22T05:22:25;98602.38;;;24.11;89.30
16431;BME280;8325;49.284;7.238;2023-06-22T05:26:40;98596.28;;;24.21;90.26
16431;BME280;8325;49.284;7.238;2023-06-22T05:30:52;98605.69;;;24.39;88.20
16431;BME280;8325;49.284;7.238;2023-06-22T05:35:04;98598.19;;;24.41;87.56
16431;BME280;8325;49.284;7.238;2023-06-22T05:39:15;98590.63;;;23.60;91.32
16431;BME280;8325;49.284;7.238;2023-06-22T05:43:27;98590.88;;;23.58;92.46
16431;BME280;8325;49.284;7.238;2023-06-22T05:47:39;98595.22;;;24.17;89.68
16431;BME280;8325;49.284;7.238;2023-06-22T05:51:50;98597.25;;;24.93;85.23
16431;BME280;8325;49.284;7.238;2023-06-22T05:56:02;98598.91;;;25.40;82.31
16431;BME280;8325;49.284;7.238;2023-06-22T06:00:15;98588.56;;;26.14;78.37
16431;BME280;8325;49.284;7.238;2023-06-22T06:04:27;98589.19;;;26.45;77.98
16431;BME280;8325;49.284;7.238;2023-06-22T06:08:39;98577.75;;;27.13;74.35
16431;BME280;8325;49.284;7.238;2023-06-22T06:12:51;98574.41;;;27.31;72.57
16431;BME280;8325;49.284;7.238;2023-06-22T06:17:02;98582.38;;;27.37;72.98
16431;BME280;8325;49.284;7.238;2023-06-22T06:21:14;98580.78;;;28.32;69.24
16431;BME280;8325;49.284;7.238;2023-06-22T06:25:25;98578.63;;;28.34;68.44
16431;BME280;8325;49.284;7.238;2023-06-22T06:29:37;98579.47;;;27.86;69.96
16431;BME280;8325;49.284;7.238;2023-06-22T06:33:49;98566.91;;;27.82;70.67
16431;BME280;8325;49.284;7.238;2023-06-22T06:38:00;98572.66;;;27.17;72.78
16431;BME280;8325;49.284;7.238;2023-06-22T06:42:12;98572.47;;;27.03;73.72
16431;BME280;8325;49.284;7.238;2023-06-22T06:46:24;98589.47;;;26.44;76.90
16431;BME280;8325;49.284;7.238;2023-06-22T06:50:36;98582.03;;;26.80;75.38
16431;BME280;8325;49.284;7.238;2023-06-22T06:54:47;98569.16;;;26.32;78.77
16431;BME280;8325;49.284;7.238;2023-06-22T06:58:59;98588.44;;;26.34;77.41
16431;BME280;8325;49.284;7.238;2023-06-22T07:03:10;98576.28;;;26.03;79.09
16431;BME280;8325;49.284;7.238;2023-06-22T07:07:23;98574.25;;;25.59;80.32
16431;BME280;8325;49.284;7.238;2023-06-22T07:11:35;98565.66;;;25.82;79.98
16431;BME280;8325;49.284;7.238;2023-06-22T07:15:47;98560.91;;;25.59;81.68
16431;BME280;8325;49.284;7.238;2023-06-22T07:19:59;98557.31;;;25.94;78.40
16431;BME280;8325;49.284;7.238;2023-06-22T07:24:11;98548.50;;;25.88;79.22
16431;BME280;8325;49.284;7.238;2023-06-22T07:28:23;98562.66;;;25.94;78.90
16431;BME280;8325;49.284;7.238;2023-06-22T07:32:34;98562.78;;;25.48;82.13
16431;BME280;8325;49.284;7.238;2023-06-22T07:36:46;98532.59;;;25.32;82.82
16431;BME280;8325;49.284;7.238;2023-06-22T07:40:58;98535.50;;;25.46;82.53
16431;BME280;8325;49.284;7.238;2023-06-22T07:45:10;98531.53;;;25.43;81.78
16431;BME280;8325;49.284;7.238;2023-06-22T07:49:21;98528.44;;;25.86;80.26
16431;BME280;8325;49.284;7.238;2023-06-22T07:53:33;98543.06;;;26.09;79.36
16431;BME280;8325;49.284;7.238;2023-06-22T07:57:48;98535.50;;;26.21;78.65
16431;BME280;8325;49.284;7.238;2023-06-22T08:02:00;98541.41;;;26.18;79.29
16431;BME280;8325;49.284;7.238;2023-06-22T08:06:12;98528.44;;;26.40;77.71
16431;BME280;8325;49.284;7.238;2023-06-22T08:10:24;98516.88;;;26.01;78.64
16431;BME280;8325;49.284;7.238;2023-06-22T08:14:38;98508.44;;;25.63;78.38
16431;BME280;8325;49.284;7.238;2023-06-22T08:18:49;98519.44;;;25.56;78.40
16431;BME280;8325;49.284;7.238;2023-06-22T08:23:01;98521.91;;;25.37;80.49
16431;BME280;8325;49.284;7.238;2023-06-22T08:27:17;98493.84;;;25.09;83.58
16431;BME280;8325;49.284;7.238;2023-06-22T08:31:32;98486.09;;;25.08;83.86
16431;BME280;8325;49.284;7.238;2023-06-22T08:35:47;98501.50;;;25.62;82.93
16431;BME280;8325;49.284;7.238;2023-06-22T08:39:59;98506.88;;;25.52;84.33
16431;BME280;8325;49.284;7.238;2023-06-22T08:44:11;98501.97;;;25.79;83.09
16431;BME280;8325;49.284;7.238;2023-06-22T08:48:22;98499.16;;;26.15;83.46
16431;BME280;8325;49.284;7.238;2023-06-22T08:52:34;98500.47;;;26.57;79.68
16431;BME280;8325;49.284;7.238;2023-06-22T08:56:46;98506.72;;;26.81;80.28
16431;BME280;8325;49.284;7.238;2023-06-22T09:00:58;98513.03;;;26.96;77.65
16431;BME280;8325;49.284;7.238;2023-06-22T09:05:12;98504.19;;;27.24;76.71
16431;BME280;8325;49.284;7.238;2023-06-22T09:09:24;98507.94;;;27.28;77.75
16431;BME280;8325;49.284;7.238;2023-06-22T09:13:36;98491.38;;;27.45;75.75
16431;BME280;8325;49.284;7.238;2023-06-22T09:17:48;98489.97;;;27.53;74.67
16431;BME280;8325;49.284;7.238;2023-06-22T09:22:00;98472.25;;;27.52;73.21
16431;BME280;8325;49.284;7.238;2023-06-22T09:26:12;98463.22;;;27.67;70.58
16431;BME280;8325;49.284;7.238;2023-06-22T09:30:24;98442.78;;;27.71;70.56
16431;BME280;8325;49.284;7.238;2023-06-22T09:34:35;98442.88;;;28.22;70.16
16431;BME280;8325;49.284;7.238;2023-06-22T09:38:47;98446.81;;;28.30;66.97
16431;BME280;8325;49.284;7.238;2023-06-22T09:42:59;98440.38;;;27.93;65.29
16431;BME280;8325;49.284;7.238;2023-06-22T09:47:10;98436.00;;;27.97;67.52
16431;BME280;8325;49.284;7.238;2023-06-22T09:51:23;98422.31;;;27.99;65.49
16431;BME280;8325;49.284;7.238;2023-06-22T09:55:35;98432.84;;;28.28;67.96
16431;BME280;8325;49.284;7.238;2023-06-22T09:59:46;98422.09;;;28.47;66.40
16431;BME280;8325;49.284;7.238;2023-06-22T10:04:02;98416.59;;;28.57;66.00
16431;BME280;8325;49.284;7.238;2023-06-22T10:08:14;98409.06;;;28.21;64.29
16431;BME280;8325;49.284;7.238;2023-06-22T10:12:27;98411.00;;;28.02;66.37
16431;BME280;8325;49.284;7.238;2023-06-22T10:16:39;98406.63;;;28.06;66.16
16431;BME280;8325;49.284;7.238;2023-06-22T10:20:53;98398.59;;;28.39;64.53
16431;BME280;8325;49.284;7.238;2023-06-22T10:25:05;98400.72;;;28.23;64.25
16431;BME280;8325;49.284;7.238;2023-06-22T10:29:17;98412.53;;;28.41;64.50
16431;BME280;8325;49.284;7.238;2023-06-22T10:33:28;98394.81;;;28.73;63.97
16431;BME280;8325;49.284;7.238;2023-06-22T10:37:40;98403.47;;;28.70;62.28
16431;BME280;8325;49.284;7.238;2023-06-22T10:41:54;98378.41;;;29.16;64.02
16431;BME280;8325;49.284;7.238;2023-06-22T10:46:07;98371.41;;;29.56;63.78
16431;BME280;8325;49.284;7.238;2023-06-22T10:50:19;98366.88;;;29.29;61.29
16431;BME280;8325;49.284;7.238;2023-06-22T10:54:32;98378.97;;;29.40;61.35
16431;BME280;8325;49.284;7.238;2023-06-22T10:58:45;98368.59;;;29.75;61.45
16431;BME280;8325;49.284;7.238;2023-06-22T11:02:57;98383.53;;;30.03;61.19
16431;BME280;8325;49.284;7.238;2023-06-22T11:07:10;98389.03;;;29.98;60.07
16431;BME280;8325;49.284;7.238;2023-06-22T11:11:21;98391.50;;;30.31;59.77
16431;BME280;8325;49.284;7.238;2023-06-22T11:15:33;98384.25;;;29.95;55.04
16431;BME280;8325;49.284;7.238;2023-06-22T11:19:46;98381.38;;;30.14;56.62
16431;BME280;8325;49.284;7.238;2023-06-22T11:23:59;98386.25;;;30.26;58.46
16431;BME280;8325;49.284;7.238;2023-06-22T11:28:10;98389.78;;;30.35;56.05
16431;BME280;8325;49.284;7.238;2023-06-22T11:32:22;98393.88;;;30.33;56.82
16431;BME280;8325;49.284;7.238;2023-06-22T11:36:34;98398.97;;;30.34;57.15
16431;BME280;8325;49.284;7.238;2023-06-22T11:40:46;98386.97;;;30.40;57.28
16431;BME280;8325;49.284;7.238;2023-06-22T11:44:58;98373.06;;;30.78;55.17
16431;BME280;8325;49.284;7.238;2023-06-22T11:49:10;98377.25;;;30.62;54.31
16431;BME280;8325;49.284;7.238;2023-06-22T11:53:25;98370.47;;;30.33;56.12
16431;BME280;8325;49.284;7.238;2023-06-22T11:57:38;98369.28;;;30.03;55.66
16431;BME280;8325;49.284;7.238;2023-06-22T12:01:50;98375.09;;;29.96;56.37
16431;BME280;8325;49.284;7.238;2023-06-22T12:06:03;98370.06;;;30.03;56.34
16431;BME280;8325;49.284;7.238;2023-06-22T12:10:15;98365.19;;;30.28;56.59
16431;BME280;8325;49.284;7.238;2023-06-22T12:14:26;98361.59;;;30.64;55.62
16431;BME280;8325;49.284;7.238;2023-06-22T12:18:40;98369.63;;;30.55;54.64
16431;BME280;8325;49.284;7.238;2023-06-22T12:22:52;98359.28;;;30.48;55.70
16431;BME280;8325;49.284;7.238;2023-06-22T12:27:05;98360.88;;;30.49;56.54
16431;BME280;8325;49.284;7.238;2023-06-22T12:31:17;98361.22;;;30.88;56.43
16431;BME280;8325;49.284;7.238;2023-06-22T12:35:29;98364.31;;;31.12;55.24
16431;BME280;8325;49.284;7.238;2023-06-22T12:39:41;98359.09;;;31.16;54.75
16431;BME280;8325;49.284;7.238;2023-06-22T12:43:52;98342.34;;;30.79;55.04
16431;BME280;8325;49.284;7.238;2023-06-22T12:48:04;98347.94;;;30.69;54.73
16431;BME280;8325;49.284;7.238;2023-06-22T12:52:16;98334.72;;;30.81;51.65
16431;BME280;8325;49.284;7.238;2023-06-22T12:56:28;98324.63;;;30.95;51.94
16431;BME280;8325;49.284;7.238;2023-06-22T13:00:39;98326.72;;;30.67;48.68
16431;BME280;8325;49.284;7.238;2023-06-22T13:04:51;98325.75;;;31.12;48.85
16431;BME280;8325;49.284;7.238;2023-06-22T13:09:03;98321.78;;;31.18;48.85
16431;BME280;8325;49.284;7.238;2023-06-22T13:13:19;98331.38;;;31.41;47.61
16431;BME280;8325;49.284;7.238;2023-06-22T13:17:31;98316.63;;;31.56;47.47
16431;BME280;8325;49.284;7.238;2023-06-22T13:21:42;98317.91;;;31.50;46.37
16431;BME280;8325;49.284;7.238;2023-06-22T13:25:54;98290.75;;;31.64;45.68
16431;BME280;8325;49.284;7.238;2023-06-22T13:30:06;98288.03;;;31.55;46.15
16431;BME280;8325;49.284;7.238;2023-06-22T13:34:18;98276.59;;;31.67;46.46
16431;BME280;8325;49.284;7.238;2023-06-22T13:38:29;98276.59;;;31.67;45.77
16431;BME280;8325;49.284;7.238;2023-06-22T13:42:43;98259.94;;;31.65;45.85
16431;BME280;8325;49.284;7.238;2023-06-22T13:46:55;98260.72;;;31.74;46.00
16431;BME280;8325;49.284;7.238;2023-06-22T13:51:06;98240.91;;;31.35;46.89
16431;BME280;8325;49.284;7.238;2023-06-22T13:55:18;98235.03;;;31.16;47.66
16431;BME280;8325;49.284;7.238;2023-06-22T13:59:32;98234.91;;;30.72;48.75
16431;BME280;8325;49.284;7.238;2023-06-22T14:03:44;98243.81;;;30.24;48.84
16431;BME280;8325;49.284;7.238;2023-06-22T14:07:58;98246.09;;;30.40;47.73
16431;BME280;8325;49.284;7.238;2023-06-22T14:12:10;98273.47;;;30.73;46.46
16431;BME280;8325;49.284;7.238;2023-06-22T14:16:21;98294.91;;;30.78;46.42
16431;BME280;8325;49.284;7.238;2023-06-22T14:20:33;98296.59;;;30.74;46.56
16431;BME280;8325;49.284;7.238;2023-06-22T14:24:45;98293.03;;;30.96;44.60
16431;BME280;8325;49.284;7.238;2023-06-22T14:28:57;98289.88;;;31.03;41.42
16431;BME280;8325;49.284;7.238;2023-06-22T14:33:08;98291.50;;;30.64;42.47
16431;BME280;8325;49.284;7.238;2023-06-22T14:37:20;98257.72;;;30.66;41.38
16431;BME280;8325;49.284;7.238;2023-06-22T14:41:32;98265.63;;;30.63;43.36
16431;BME280;8325;49.284;7.238;2023-06-22T14:45:43;98259.00;;;30.69;41.60
16431;BME280;8325;49.284;7.238;2023-06-22T14:49:55;98263.97;;;30.84;42.74
16431;BME280;8325;49.284;7.238;2023-06-22T14:54:07;98265.63;;;30.63;42.03
16431;BME280;8325;49.284;7.238;2023-06-22T14:58:18;98259.72;;;30.43;43.10
16431;BME280;8325;49.284;7.238;2023-06-22T15:02:30;98268.25;;;30.37;41.52
16431;BME280;8325;49.284;7.238;2023-06-22T15:06:42;98253.00;;;30.32;42.24
16431;BME280;8325;49.284;7.238;2023-06-22T15:10:58;98260.19;;;30.37;41.92
16431;BME280;8325;49.284;7.238;2023-06-22T15:15:10;98270.56;;;30.21;42.63
16431;BME280;8325;49.284;7.238;2023-06-22T15:19:22;98268.97;;;30.20;43.29
16431;BME280;8325;49.284;7.238;2023-06-22T15:23:34;98287.56;;;30.30;42.48
16431;BME280;8325;49.284;7.238;2023-06-22T15:27:45;98287.38;;;30.26;40.83
16431;BME280;8325;49.284;7.238;2023-06-22T15:31:57;98297.13;;;29.91;41.88
16431;BME280;8325;49.284;7.238;2023-06-22T15:36:09;98298.16;;;30.04;42.08
16431;BME280;8325;49.284;7.238;2023-06-22T15:40:20;98294.75;;;29.90;42.52
16431;BME280;8325;49.284;7.238;2023-06-22T15:44:32;98292.47;;;30.05;42.37
16431;BME280;8325;49.284;7.238;2023-06-22T15:48:43;98300.41;;;30.11;42.56
16431;BME280;8325;49.284;7.238;2023-06-22T15:52:57;98308.38;;;29.71;43.62
16431;BME280;8325;49.284;7.238;2023-06-22T15:57:09;98298.69;;;29.47;44.42
16431;BME280;8325;49.284;7.238;2023-06-22T16:01:24;98285.16;;;29.25;45.81
16431;BME280;8325;49.284;7.238;2023-06-22T16:05:35;98286.09;;;29.06;46.54
16431;BME280;8325;49.284;7.238;2023-06-22T16:09:47;98293.50;;;29.37;46.58
16431;BME280;8325;49.284;7.238;2023-06-22T16:13:59;98290.41;;;29.07;47.40
16431;BME280;8325;49.284;7.238;2023-06-22T16:18:10;98282.63;;;28.92;48.29
16431;BME280;8325;49.284;7.238;2023-06-22T16:22:22;98281.44;;;28.57;49.60
16431;BME280;8325;49.284;7.238;2023-06-22T16:26:41;98277.38;;;28.13;50.58
16431;BME280;8325;49.284;7.238;2023-06-22T16:30:53;98281.75;;;28.09;51.27
16431;BME280;8325;49.284;7.238;2023-06-22T16:35:04;98286.53;;;28.26;51.18
16431;BME280;8325;49.284;7.238;2023-06-22T16:39:16;98289.50;;;28.43;51.24
16431;BME280;8325;49.284;7.238;2023-06-22T16:43:28;98272.47;;;28.48;50.90
16431;BME280;8325;49.284;7.238;2023-06-22T16:47:39;98294.38;;;28.82;50.12
16431;BME280;8325;49.284;7.238;2023-06-22T16:51:51;98295.47;;;28.95;51.22
16431;BME280;8325;49.284;7.238;2023-06-22T16:56:03;98326.84;;;29.13;52.97
16431;BME280;8325;49.284;7.238;2023-06-22T17:00:15;98345.75;;;29.08;53.30
16431;BME280;8325;49.284;7.238;2023-06-22T17:04:29;98362.16;;;28.93;53.81
16431;BME280;8325;49.284;7.238;2023-06-22T17:08:42;98344.53;;;28.59;54.13
16431;BME280;8325;49.284;7.238;2023-06-22T17:12:55;98334.50;;;28.79;53.88
16431;BME280;8325;49.284;7.238;2023-06-22T17:17:08;98334.47;;;28.51;53.55
16431;BME280;8325;49.284;7.238;2023-06-22T17:21:21;98340.94;;;28.50;53.09
16431;BME280;8325;49.284;7.238;2023-06-22T17:25:34;98362.28;;;28.09;53.25
16431;BME280;8325;49.284;7.238;2023-06-22T17:29:45;98360.91;;;27.73;52.09
16431;BME280;8325;49.284;7.238;2023-06-22T17:33:57;98366.63;;;27.67;52.92
16431;BME280;8325;49.284;7.238;2023-06-22T17:38:20;98369.34;;;27.86;53.33
16431;BME280;8325;49.284;7.238;2023-06-22T17:42:31;98377.59;;;27.70;54.08
16431;BME280;8325;49.284;7.238;2023-06-22T17:46:43;98381.63;;;27.49;54.88
16431;BME280;8325;49.284;7.238;2023-06-22T17:50:55;98386.63;;;27.55;55.14
16431;BME280;8325;49.284;7.238;2023-06-22T17:55:08;98399.75;;;27.38;54.99
16431;BME280;8325;49.284;7.238;2023-06-22T17:59:22;98425.03;;;26.79;55.80
16431;BME280;8325;49.284;7.238;2023-06-22T18:03:38;98433.50;;;26.62;57.14
16431;BME280;8325;49.284;7.238;2023-06-22T18:07:51;98452.53;;;26.21;58.73
16431;BME280;8325;49.284;7.238;2023-06-22T18:12:05;98459.16;;;25.79;60.63
16431;BME280;8325;49.284;7.238;2023-06-22T18:16:19;98460.31;;;25.63;61.07
16431;BME280;8325;49.284;7.238;2023-06-22T18:20:33;98461.22;;;25.33;62.69
16431;BME280;8325;49.284;7.238;2023-06-22T18:24:49;98498.94;;;25.11;63.88
16431;BME280;8325;49.284;7.238;2023-06-22T18:29:01;98498.44;;;24.73;66.07
16431;BME280;8325;49.284;7.238;2023-06-22T18:33:13;98513.13;;;24.70;66.12
16431;BME280;8325;49.284;7.238;2023-06-22T18:37:29;98499.50;;;24.51;66.93
16431;BME280;8325;49.284;7.238;2023-06-22T18:41:49;98492.22;;;24.26;67.68
16431;BME280;8325;49.284;7.238;2023-06-22T18:46:34;98509.53;;;24.13;68.21
16431;BME280;8325;49.284;7.238;2023-06-22T18:50:46;98514.34;;;24.22;68.24
16431;BME280;8325;49.284;7.238;2023-06-22T18:55:04;98510.06;;;24.10;68.28
16431;BME280;8325;49.284;7.238;2023-06-22T19:03:59;98514.84;;;24.03;67.96
16431;BME280;8325;49.284;7.238;2023-06-22T19:08:12;98511.41;;;24.08;67.51
16431;BME280;8325;49.284;7.238;2023-06-22T19:12:26;98514.50;;;23.84;68.08
16431;BME280;8325;49.284;7.238;2023-06-22T19:16:39;98528.63;;;23.75;68.77
16431;BME280;8325;49.284;7.238;2023-06-22T19:20:59;98522.63;;;23.52;69.59
16431;BME280;8325;49.284;7.238;2023-06-22T19:25:19;98532.22;;;23.53;69.56
16431;BME280;8325;49.284;7.238;2023-06-22T19:29:31;98536.16;;;23.46;70.32
16431;BME280;8325;49.284;7.238;2023-06-22T19:33:43;98556.63;;;23.35;70.74
16431;BME280;8325;49.284;7.238;2023-06-22T19:37:55;98550.78;;;23.01;71.73
16431;BME280;8325;49.284;7.238;2023-06-22T19:42:06;98543.03;;;22.99;72.19
16431;BME280;8325;49.284;7.238;2023-06-22T19:46:26;98552.09;;;22.71;73.59
16431;BME280;8325;49.284;7.238;2023-06-22T19:50:39;98543.75;;;22.62;73.57
16431;BME280;8325;49.284;7.238;2023-06-22T19:54:52;98545.84;;;22.55;74.22
16431;BME280;8325;49.284;7.238;2023-06-22T19:59:11;98549.00;;;22.52;74.30
16431;BME280;8325;49.284;7.238;2023-06-22T20:03:37;98560.75;;;22.56;74.49
16431;BME280;8325;49.284;7.238;2023-06-22T20:07:51;98564.09;;;22.46;75.22
16431;BME280;8325;49.284;7.238;2023-06-22T20:12:02;98567.88;;;22.50;75.43
16431;BME280;8325;49.284;7.238;2023-06-22T20:16:14;98581.38;;;22.44;75.90
16431;BME280;8325;49.284;7.238;2023-06-22T20:20:29;98583.13;;;22.33;76.55
16431;BME280;8325;49.284;7.238;2023-06-22T20:24:44;98579.31;;;22.24;77.18
16431;BME280;8325;49.284;7.238;2023-06-22T20:28:56;98584.38;;;22.25;77.76
16431;BME280;8325;49.284;7.238;2023-06-22T20:33:15;98582.28;;;22.27;78.07
16431;BME280;8325;49.284;7.238;2023-06-22T20:37:27;98595.13;;;22.14;78.73
16431;BME280;8325;49.284;7.238;2023-06-22T20:41:39;98597.78;;;22.14;78.82
16431;BME280;8325;49.284;7.238;2023-06-22T20:45:51;98610.13;;;22.20;78.78
16431;BME280;8325;49.284;7.238;2023-06-22T20:50:06;98615.47;;;22.03;79.45
16431;BME280;8325;49.284;7.238;2023-06-22T20:54:17;98620.09;;;21.91;79.19
16431;BME280;8325;49.284;7.238;2023-06-22T20:58:29;98632.09;;;21.93;79.15
16431;BME280;8325;49.284;7.238;2023-06-22T21:02:40;98647.09;;;21.82;78.31
16431;BME280;8325;49.284;7.238;2023-06-22T21:06:52;98634.72;;;21.71;78.79
16431;BME280;8325;49.284;7.238;2023-06-22T21:11:04;98642.75;;;21.76;78.03
16431;BME280;8325;49.284;7.238;2023-06-22T21:15:16;98643.81;;;21.75;77.67
16431;BME280;8325;49.284;7.238;2023-06-22T21:19:27;98650.00;;;21.64;77.78
16431;BME280;8325;49.284;7.238;2023-06-22T21:23:39;98659.84;;;21.64;77.60
16431;BME280;8325;49.284;7.238;2023-06-22T21:27:51;98670.16;;;21.60;77.54
